sensor_id;sensor_type;location;lat;lon;timestamp;temperature;humidity
14995;DHT22;7593;49.006;8.372;2022-07-29T00:00:39;22.80;93.30
14995;DHT22;7593;49.006;8.372;2022-07-29T00:03:05;22.80;93.40
14995;DHT22;7593;49.006;8.372;2022-07-29T00:05:32;22.70;93.50
14995;DHT22;7593;49.006;8.372;2022-07-29T00:08:00;22.70;93.70
14995;DHT22;7593;49.006;8.372;2022-07-29T00:10:27;22.60;93.80
14995;DHT22;7593;49.006;8.372;2022-07-29T00:12:54;22.60;94.00
14995;DHT22;7593;49.006;8.372;2022-07-29T00:15:24;22.50;94.00
14995;DHT22;7593;49.006;8.372;2022-07-29T00:17:52;22.50;94.10
14995;DHT22;7593;49.006;8.372;2022-07-29T00:20:19;22.50;94.20
14995;DHT22;7593;49.006;8.372;2022-07-29T00:22:45;22.40;94.20
14995;DHT22;7593;49.006;8.372;2022-07-29T00:25:12;22.50;94.40
14995;DHT22;7593;49.006;8.372;2022-07-29T00:27:39;22.40;94.30
14995;DHT22;7593;49.006;8.372;2022-07-29T00:30:08;22.40;94.40
14995;DHT22;7593;49.006;8.372;2022-07-29T00:32:35;22.40;94.40
14995;DHT22;7593;49.006;8.372;2022-07-29T00:35:04;22.40;94.50
14995;DHT22;7593;49.006;8.372;2022-07-29T00:37:48;22.40;94.40
14995;DHT22;7593;49.006;8.372;2022-07-29T00:40:16;22.40;94.50
14995;DHT22;7593;49.006;8.372;2022-07-29T00:42:43;22.40;94.50
14995;DHT22;7593;49.006;8.372;2022-07-29T00:45:11;22.40;94.60
14995;DHT22;7593;49.006;8.372;2022-07-29T00:47:38;22.40;94.60
14995;DHT22;7593;49.006;8.372;2022-07-29T00:50:08;22.40;94.70
14995;DHT22;7593;49.006;8.372;2022-07-29T00:52:37;22.40;94.70
14995;DHT22;7593;49.006;8.372;2022-07-29T00:55:06;22.30;94.70
14995;DHT22;7593;49.006;8.372;2022-07-29T00:57:34;22.40;94.80
14995;DHT22;7593;49.006;8.372;2022-07-29T01:00:01;22.30;94.80
14995;DHT22;7593;49.006;8.372;2022-07-29T01:02:28;22.30;94.90
14995;DHT22;7593;49.006;8.372;2022-07-29T01:04:56;22.30;95.00
14995;DHT22;7593;49.006;8.372;2022-07-29T01:07:25;22.30;95.10
14995;DHT22;7593;49.006;8.372;2022-07-29T01:09:53;22.20;95.20
14995;DHT22;7593;49.006;8.372;2022-07-29T01:12:23;22.20;95.30
14995;DHT22;7593;49.006;8.372;2022-07-29T01:14:55;22.10;95.40
14995;DHT22;7593;49.006;8.372;2022-07-29T01:17:26;22.10;95.50
14995;DHT22;7593;49.006;8.372;2022-07-29T01:20:03;22.00;95.70
14995;DHT22;7593;49.006;8.372;2022-07-29T01:23:06;22.00;95.70
14995;DHT22;7593;49.006;8.372;2022-07-29T01:25:59;22.00;95.90
14995;DHT22;7593;49.006;8.372;2022-07-29T01:28:55;22.00;95.90
14995;DHT22;7593;49.006;8.372;2022-07-29T01:31:31;21.90;95.90
14995;DHT22;7593;49.006;8.372;2022-07-29T01:34:03;21.90;95.90
14995;DHT22;7593;49.006;8.372;2022-07-29T01:36:35;21.90;96.00
14995;DHT22;7593;49.006;8.372;2022-07-29T01:39:08;21.90;96.00
14995;DHT22;7593;49.006;8.372;2022-07-29T01:41:38;21.90;96.00
14995;DHT22;7593;49.006;8.372;2022-07-29T01:44:13;21.90;96.10
14995;DHT22;7593;49.006;8.372;2022-07-29T01:46:47;21.80;96.10
14995;DHT22;7593;49.006;8.372;2022-07-29T01:49:19;21.80;96.20
14995;DHT22;7593;49.006;8.372;2022-07-29T01:51:50;21.80;96.20
14995;DHT22;7593;49.006;8.372;2022-07-29T01:54:21;21.70;96.30
14995;DHT22;7593;49.006;8.372;2022-07-29T01:56:51;21.60;96.50
14995;DHT22;7593;49.006;8.372;2022-07-29T01:59:21;21.50;96.60
14995;DHT22;7593;49.006;8.372;2022-07-29T02:01:52;21.40;96.70
14995;DHT22;7593;49.006;8.372;2022-07-29T02:04:20;21.40;96.90
14995;DHT22;7593;49.006;8.372;2022-07-29T02:06:49;21.30;97.00
14995;DHT22;7593;49.006;8.372;2022-07-29T02:09:18;21.30;97.00
14995;DHT22;7593;49.006;8.372;2022-07-29T02:11:48;21.30;97.10
14995;DHT22;7593;49.006;8.372;2022-07-29T02:14:18;21.30;97.30
14995;DHT22;7593;49.006;8.372;2022-07-29T02:16:47;21.20;97.40
14995;DHT22;7593;49.006;8.372;2022-07-29T02:19:17;21.20;97.50
14995;DHT22;7593;49.006;8.372;2022-07-29T02:21:45;21.10;97.60
14995;DHT22;7593;49.006;8.372;2022-07-29T02:24:14;21.00;97.70
14995;DHT22;7593;49.006;8.372;2022-07-29T02:26:43;21.00;97.80
14995;DHT22;7593;49.006;8.372;2022-07-29T02:29:12;21.00;98.00
14995;DHT22;7593;49.006;8.372;2022-07-29T02:31:41;20.90;98.10
14995;DHT22;7593;49.006;8.372;2022-07-29T02:34:15;20.90;98.20
14995;DHT22;7593;49.006;8.372;2022-07-29T02:36:44;20.90;98.30
14995;DHT22;7593;49.006;8.372;2022-07-29T02:39:12;20.80;98.40
14995;DHT22;7593;49.006;8.372;2022-07-29T02:41:43;20.80;98.50
14995;DHT22;7593;49.006;8.372;2022-07-29T02:44:13;20.80;98.60
14995;DHT22;7593;49.006;8.372;2022-07-29T02:46:46;20.80;98.70
14995;DHT22;7593;49.006;8.372;2022-07-29T02:49:18;20.70;98.60
14995;DHT22;7593;49.006;8.372;2022-07-29T02:51:53;20.70;99.10
14995;DHT22;7593;49.006;8.372;2022-07-29T02:54:24;20.80;98.90
14995;DHT22;7593;49.006;8.372;2022-07-29T02:56:53;20.80;98.90
14995;DHT22;7593;49.006;8.372;2022-07-29T02:59:26;20.80;98.90
14995;DHT22;7593;49.006;8.372;2022-07-29T03:01:55;20.80;98.90
14995;DHT22;7593;49.006;8.372;2022-07-29T03:04:24;20.80;99.00
14995;DHT22;7593;49.006;8.372;2022-07-29T03:06:54;20.80;98.90
14995;DHT22;7593;49.006;8.372;2022-07-29T03:09:22;20.80;98.90
14995;DHT22;7593;49.006;8.372;2022-07-29T03:11:49;20.80;98.90
14995;DHT22;7593;49.006;8.372;2022-07-29T03:14:17;20.80;99.00
14995;DHT22;7593;49.006;8.372;2022-07-29T03:16:45;20.80;99.10
14995;DHT22;7593;49.006;8.372;2022-07-29T03:19:12;20.70;99.10
14995;DHT22;7593;49.006;8.372;2022-07-29T03:21:40;20.70;99.20
14995;DHT22;7593;49.006;8.372;2022-07-29T03:24:07;20.70;99.30
14995;DHT22;7593;49.006;8.372;2022-07-29T03:26:34;20.70;99.30
14995;DHT22;7593;49.006;8.372;2022-07-29T03:29:01;20.70;99.30
14995;DHT22;7593;49.006;8.372;2022-07-29T03:31:27;20.70;99.40
14995;DHT22;7593;49.006;8.372;2022-07-29T03:33:54;20.70;99.40
14995;DHT22;7593;49.006;8.372;2022-07-29T03:36:21;20.70;99.50
14995;DHT22;7593;49.006;8.372;2022-07-29T03:38:49;20.70;99.50
14995;DHT22;7593;49.006;8.372;2022-07-29T03:41:17;20.70;99.50
14995;DHT22;7593;49.006;8.372;2022-07-29T03:43:46;20.70;99.50
14995;DHT22;7593;49.006;8.372;2022-07-29T03:46:15;20.60;99.50
14995;DHT22;7593;49.006;8.372;2022-07-29T03:48:46;20.60;99.60
14995;DHT22;7593;49.006;8.372;2022-07-29T03:51:15;20.60;99.70
14995;DHT22;7593;49.006;8.372;2022-07-29T03:53:41;20.60;99.80
14995;DHT22;7593;49.006;8.372;2022-07-29T03:56:10;20.60;99.80
14995;DHT22;7593;49.006;8.372;2022-07-29T03:58:42;20.50;99.80
14995;DHT22;7593;49.006;8.372;2022-07-29T04:01:09;20.50;99.90
14995;DHT22;7593;49.006;8.372;2022-07-29T04:03:36;20.50;99.90
14995;DHT22;7593;49.006;8.372;2022-07-29T04:06:04;20.50;99.90
14995;DHT22;7593;49.006;8.372;2022-07-29T04:08:32;20.50;99.90
14995;DHT22;7593;49.006;8.372;2022-07-29T04:10:59;20.40;99.90
14995;DHT22;7593;49.006;8.372;2022-07-29T04:13:27;20.40;99.90
14995;DHT22;7593;49.006;8.372;2022-07-29T04:15:55;20.30;99.90
14995;DHT22;7593;49.006;8.372;2022-07-29T04:18:21;20.30;99.90
14995;DHT22;7593;49.006;8.372;2022-07-29T04:20:48;20.30;99.90
14995;DHT22;7593;49.006;8.372;2022-07-29T04:23:15;20.20;99.90
14995;DHT22;7593;49.006;8.372;2022-07-29T04:25:42;20.30;99.90
14995;DHT22;7593;49.006;8.372;2022-07-29T04:28:10;20.20;99.90
14995;DHT22;7593;49.006;8.372;2022-07-29T04:30:38;20.20;99.90
14995;DHT22;7593;49.006;8.372;2022-07-29T04:33:06;20.20;99.90
14995;DHT22;7593;49.006;8.372;2022-07-29T04:35:35;20.20;99.90
14995;DHT22;7593;49.006;8.372;2022-07-29T04:38:01;20.20;99.90
14995;DHT22;7593;49.006;8.372;2022-07-29T04:40:28;20.10;99.90
14995;DHT22;7593;49.006;8.372;2022-07-29T04:42:55;20.10;99.90
14995;DHT22;7593;49.006;8.372;2022-07-29T04:45:22;20.10;99.90
14995;DHT22;7593;49.006;8.372;2022-07-29T04:47:50;20.10;99.90
14995;DHT22;7593;49.006;8.372;2022-07-29T04:50:17;20.10;99.90
14995;DHT22;7593;49.006;8.372;2022-07-29T04:52:44;20.00;99.90
14995;DHT22;7593;49.006;8.372;2022-07-29T04:55:11;20.00;99.90
14995;DHT22;7593;49.006;8.372;2022-07-29T04:57:37;19.90;99.90
14995;DHT22;7593;49.006;8.372;2022-07-29T05:00:06;19.90;99.90
14995;DHT22;7593;49.006;8.372;2022-07-29T05:02:33;19.80;99.90
14995;DHT22;7593;49.006;8.372;2022-07-29T05:05:01;19.70;99.90
14995;DHT22;7593;49.006;8.372;2022-07-29T05:07:28;19.70;99.90
14995;DHT22;7593;49.006;8.372;2022-07-29T05:09:55;19.60;99.90
14995;DHT22;7593;49.006;8.372;2022-07-29T05:12:22;19.60;99.90
14995;DHT22;7593;49.006;8.372;2022-07-29T05:14:49;19.60;99.90
14995;DHT22;7593;49.006;8.372;2022-07-29T05:17:16;19.60;99.90
14995;DHT22;7593;49.006;8.372;2022-07-29T05:19:43;19.70;99.90
14995;DHT22;7593;49.006;8.372;2022-07-29T05:22:11;19.70;99.90
14995;DHT22;7593;49.006;8.372;2022-07-29T05:24:38;19.70;99.90
14995;DHT22;7593;49.006;8.372;2022-07-29T05:27:04;19.70;99.90
14995;DHT22;7593;49.006;8.372;2022-07-29T05:29:31;19.70;99.90
14995;DHT22;7593;49.006;8.372;2022-07-29T05:31:58;19.70;99.90
14995;DHT22;7593;49.006;8.372;2022-07-29T05:34:25;19.70;99.90
14995;DHT22;7593;49.006;8.372;2022-07-29T05:36:52;19.70;99.90
14995;DHT22;7593;49.006;8.372;2022-07-29T05:39:20;19.70;99.90
14995;DHT22;7593;49.006;8.372;2022-07-29T05:41:47;19.80;99.90
14995;DHT22;7593;49.006;8.372;2022-07-29T05:44:14;19.80;99.90
14995;DHT22;7593;49.006;8.372;2022-07-29T05:46:41;19.90;99.90
14995;DHT22;7593;49.006;8.372;2022-07-29T05:49:07;19.90;99.80
14995;DHT22;7593;49.006;8.372;2022-07-29T05:51:34;19.90;99.40
14995;DHT22;7593;49.006;8.372;2022-07-29T05:54:01;20.00;98.90
14995;DHT22;7593;49.006;8.372;2022-07-29T05:56:30;20.00;98.70
14995;DHT22;7593;49.006;8.372;2022-07-29T05:58:56;19.90;98.70
14995;DHT22;7593;49.006;8.372;2022-07-29T06:01:24;20.00;98.70
14995;DHT22;7593;49.006;8.372;2022-07-29T06:03:51;20.00;98.40
14995;DHT22;7593;49.006;8.372;2022-07-29T06:06:18;20.10;98.40
14995;DHT22;7593;49.006;8.372;2022-07-29T06:08:45;20.20;98.10
14995;DHT22;7593;49.006;8.372;2022-07-29T06:11:11;20.40;97.90
14995;DHT22;7593;49.006;8.372;2022-07-29T06:13:40;20.50;97.60
14995;DHT22;7593;49.006;8.372;2022-07-29T06:16:10;20.60;97.40
14995;DHT22;7593;49.006;8.372;2022-07-29T06:18:36;20.70;97.10
14995;DHT22;7593;49.006;8.372;2022-07-29T06:21:07;20.80;97.10
14995;DHT22;7593;49.006;8.372;2022-07-29T06:23:37;21.00;97.00
14995;DHT22;7593;49.006;8.372;2022-07-29T06:26:04;21.00;96.70
14995;DHT22;7593;49.006;8.372;2022-07-29T06:28:31;21.10;97.20
14995;DHT22;7593;49.006;8.372;2022-07-29T06:30:59;21.20;97.00
14995;DHT22;7593;49.006;8.372;2022-07-29T06:33:26;21.40;96.80
14995;DHT22;7593;49.006;8.372;2022-07-29T06:35:55;21.50;96.80
14995;DHT22;7593;49.006;8.372;2022-07-29T06:38:21;21.60;96.90
14995;DHT22;7593;49.006;8.372;2022-07-29T06:40:49;22.10;96.90
14995;DHT22;7593;49.006;8.372;2022-07-29T06:43:31;22.60;95.90
14995;DHT22;7593;49.006;8.372;2022-07-29T06:46:02;22.90;95.10
14995;DHT22;7593;49.006;8.372;2022-07-29T06:48:30;23.10;95.10
14995;DHT22;7593;49.006;8.372;2022-07-29T06:51:00;23.10;94.70
14995;DHT22;7593;49.006;8.372;2022-07-29T06:53:30;23.00;94.60
14995;DHT22;7593;49.006;8.372;2022-07-29T06:55:57;23.00;94.70
14995;DHT22;7593;49.006;8.372;2022-07-29T06:58:25;23.00;94.70
14995;DHT22;7593;49.006;8.372;2022-07-29T07:00:52;23.10;94.80
14995;DHT22;7593;49.006;8.372;2022-07-29T07:03:20;23.10;94.90
14995;DHT22;7593;49.006;8.372;2022-07-29T07:05:48;23.50;94.40
14995;DHT22;7593;49.006;8.372;2022-07-29T07:08:15;24.00;93.50
14995;DHT22;7593;49.006;8.372;2022-07-29T07:10:42;24.60;93.10
14995;DHT22;7593;49.006;8.372;2022-07-29T07:13:10;25.20;92.20
14995;DHT22;7593;49.006;8.372;2022-07-29T07:15:37;25.70;91.50
14995;DHT22;7593;49.006;8.372;2022-07-29T07:18:05;26.30;91.00
14995;DHT22;7593;49.006;8.372;2022-07-29T07:20:33;26.80;90.20
14995;DHT22;7593;49.006;8.372;2022-07-29T07:23:00;26.80;88.90
14995;DHT22;7593;49.006;8.372;2022-07-29T07:25:27;26.80;88.80
14995;DHT22;7593;49.006;8.372;2022-07-29T07:27:54;26.70;89.00
14995;DHT22;7593;49.006;8.372;2022-07-29T07:30:21;26.70;88.80
14995;DHT22;7593;49.006;8.372;2022-07-29T07:32:48;26.60;88.90
14995;DHT22;7593;49.006;8.372;2022-07-29T07:35:15;26.80;88.20
14995;DHT22;7593;49.006;8.372;2022-07-29T07:37:44;27.30;87.30
14995;DHT22;7593;49.006;8.372;2022-07-29T07:40:11;27.70;85.50
14995;DHT22;7593;49.006;8.372;2022-07-29T07:42:38;27.90;85.30
14995;DHT22;7593;49.006;8.372;2022-07-29T07:45:06;28.00;84.50
14995;DHT22;7593;49.006;8.372;2022-07-29T07:47:34;28.00;84.60
14995;DHT22;7593;49.006;8.372;2022-07-29T07:50:02;27.90;84.00
14995;DHT22;7593;49.006;8.372;2022-07-29T07:52:29;27.90;84.10
14995;DHT22;7593;49.006;8.372;2022-07-29T07:54:57;28.00;83.90
14995;DHT22;7593;49.006;8.372;2022-07-29T07:57:24;28.20;82.80
14995;DHT22;7593;49.006;8.372;2022-07-29T07:59:51;28.10;82.50
14995;DHT22;7593;49.006;8.372;2022-07-29T08:02:17;27.70;83.50
14995;DHT22;7593;49.006;8.372;2022-07-29T08:04:44;27.60;83.50
14995;DHT22;7593;49.006;8.372;2022-07-29T08:07:11;27.70;82.90
14995;DHT22;7593;49.006;8.372;2022-07-29T08:09:40;27.90;81.40
14995;DHT22;7593;49.006;8.372;2022-07-29T08:12:08;27.90;81.20
14995;DHT22;7593;49.006;8.372;2022-07-29T08:14:35;27.60;81.40
14995;DHT22;7593;49.006;8.372;2022-07-29T08:17:02;27.20;81.50
14995;DHT22;7593;49.006;8.372;2022-07-29T08:19:29;27.00;82.40
14995;DHT22;7593;49.006;8.372;2022-07-29T08:21:56;26.90;82.40
14995;DHT22;7593;49.006;8.372;2022-07-29T08:24:22;26.80;82.50
14995;DHT22;7593;49.006;8.372;2022-07-29T08:27:08;26.70;82.90
14995;DHT22;7593;49.006;8.372;2022-07-29T08:29:35;26.60;82.60
14995;DHT22;7593;49.006;8.372;2022-07-29T08:32:03;26.90;81.40
14995;DHT22;7593;49.006;8.372;2022-07-29T08:34:30;27.20;80.70
14995;DHT22;7593;49.006;8.372;2022-07-29T08:36:57;27.60;80.70
14995;DHT22;7593;49.006;8.372;2022-07-29T08:39:24;28.20;79.20
14995;DHT22;7593;49.006;8.372;2022-07-29T08:41:51;29.00;77.30
14995;DHT22;7593;49.006;8.372;2022-07-29T08:44:20;29.80;75.40
14995;DHT22;7593;49.006;8.372;2022-07-29T08:46:47;30.30;72.60
14995;DHT22;7593;49.006;8.372;2022-07-29T08:49:14;30.40;72.30
14995;DHT22;7593;49.006;8.372;2022-07-29T08:51:41;30.50;71.50
14995;DHT22;7593;49.006;8.372;2022-07-29T08:54:09;30.60;71.60
14995;DHT22;7593;49.006;8.372;2022-07-29T08:56:37;30.60;70.90
14995;DHT22;7593;49.006;8.372;2022-07-29T08:59:05;30.30;71.70
14995;DHT22;7593;49.006;8.372;2022-07-29T09:01:37;30.10;71.70
14995;DHT22;7593;49.006;8.372;2022-07-29T09:04:11;29.80;72.20
14995;DHT22;7593;49.006;8.372;2022-07-29T09:06:43;29.70;73.00
14995;DHT22;7593;49.006;8.372;2022-07-29T09:09:11;30.00;72.20
14995;DHT22;7593;49.006;8.372;2022-07-29T09:11:39;30.00;71.10
14995;DHT22;7593;49.006;8.372;2022-07-29T09:14:07;30.10;70.90
14995;DHT22;7593;49.006;8.372;2022-07-29T09:16:46;30.30;70.70
14995;DHT22;7593;49.006;8.372;2022-07-29T09:19:20;30.50;70.10
14995;DHT22;7593;49.006;8.372;2022-07-29T09:21:47;30.50;70.70
14995;DHT22;7593;49.006;8.372;2022-07-29T09:24:42;30.50;70.00
14995;DHT22;7593;49.006;8.372;2022-07-29T09:27:18;30.30;69.60
14995;DHT22;7593;49.006;8.372;2022-07-29T09:29:45;30.30;69.50
14995;DHT22;7593;49.006;8.372;2022-07-29T09:32:14;30.40;69.60
14995;DHT22;7593;49.006;8.372;2022-07-29T09:34:40;30.70;69.70
14995;DHT22;7593;49.006;8.372;2022-07-29T09:37:07;31.10;68.80
14995;DHT22;7593;49.006;8.372;2022-07-29T09:39:36;31.30;68.30
14995;DHT22;7593;49.006;8.372;2022-07-29T09:42:05;31.40;68.10
14995;DHT22;7593;49.006;8.372;2022-07-29T09:44:42;31.40;68.80
14995;DHT22;7593;49.006;8.372;2022-07-29T09:47:10;31.30;68.10
14995;DHT22;7593;49.006;8.372;2022-07-29T09:49:52;31.00;68.60
14995;DHT22;7593;49.006;8.372;2022-07-29T09:52:19;30.70;69.00
14995;DHT22;7593;49.006;8.372;2022-07-29T09:54:46;30.50;69.90
14995;DHT22;7593;49.006;8.372;2022-07-29T09:57:25;30.20;70.50
14995;DHT22;7593;49.006;8.372;2022-07-29T10:00:00;29.80;71.20
14995;DHT22;7593;49.006;8.372;2022-07-29T10:02:31;29.50;72.10
14995;DHT22;7593;49.006;8.372;2022-07-29T10:05:01;29.30;72.10
14995;DHT22;7593;49.006;8.372;2022-07-29T10:07:43;29.30;72.00
14995;DHT22;7593;49.006;8.372;2022-07-29T10:10:10;29.30;72.20
14995;DHT22;7593;49.006;8.372;2022-07-29T10:12:49;29.20;72.20
14995;DHT22;7593;49.006;8.372;2022-07-29T10:15:16;29.10;72.70
14995;DHT22;7593;49.006;8.372;2022-07-29T10:17:44;28.80;73.10
14995;DHT22;7593;49.006;8.372;2022-07-29T10:20:13;28.60;73.40
14995;DHT22;7593;49.006;8.372;2022-07-29T10:22:40;28.70;73.70
14995;DHT22;7593;49.006;8.372;2022-07-29T10:25:09;29.10;72.30
14995;DHT22;7593;49.006;8.372;2022-07-29T10:27:36;30.20;70.30
14995;DHT22;7593;49.006;8.372;2022-07-29T10:30:05;31.20;67.20
14995;DHT22;7593;49.006;8.372;2022-07-29T10:32:47;32.20;64.60
14995;DHT22;7593;49.006;8.372;2022-07-29T10:35:40;33.20;62.00
14995;DHT22;7593;49.006;8.372;2022-07-29T10:38:34;34.10;60.60
14995;DHT22;7593;49.006;8.372;2022-07-29T10:41:13;34.80;59.80
14995;DHT22;7593;49.006;8.372;2022-07-29T10:43:58;35.30;59.20
14995;DHT22;7593;49.006;8.372;2022-07-29T10:46:27;35.70;58.20
14995;DHT22;7593;49.006;8.372;2022-07-29T10:49:11;35.90;58.00
14995;DHT22;7593;49.006;8.372;2022-07-29T10:52:08;36.30;57.30
14995;DHT22;7593;49.006;8.372;2022-07-29T10:57:26;36.40;57.00
14995;DHT22;7593;49.006;8.372;2022-07-29T11:00:27;36.50;56.70
14995;DHT22;7593;49.006;8.372;2022-07-29T11:02:55;36.70;56.20
14995;DHT22;7593;49.006;8.372;2022-07-29T11:05:23;36.60;56.30
14995;DHT22;7593;49.006;8.372;2022-07-29T11:08:22;36.80;56.30
14995;DHT22;7593;49.006;8.372;2022-07-29T11:14:02;36.70;55.70
14995;DHT22;7593;49.006;8.372;2022-07-29T11:17:00;36.50;55.80
14995;DHT22;7593;49.006;8.372;2022-07-29T11:19:28;35.90;56.00
14995;DHT22;7593;49.006;8.372;2022-07-29T11:21:55;35.40;56.40
14995;DHT22;7593;49.006;8.372;2022-07-29T11:24:25;34.90;57.00
14995;DHT22;7593;49.006;8.372;2022-07-29T11:27:14;34.60;57.60
14995;DHT22;7593;49.006;8.372;2022-07-29T11:29:49;34.80;57.20
14995;DHT22;7593;49.006;8.372;2022-07-29T11:32:17;35.30;56.90
14995;DHT22;7593;49.006;8.372;2022-07-29T11:34:45;35.50;56.30
14995;DHT22;7593;49.006;8.372;2022-07-29T11:37:22;35.30;56.60
14995;DHT22;7593;49.006;8.372;2022-07-29T11:40:14;35.00;56.90
14995;DHT22;7593;49.006;8.372;2022-07-29T11:42:43;34.70;57.20
14995;DHT22;7593;49.006;8.372;2022-07-29T11:45:16;34.70;57.00
14995;DHT22;7593;49.006;8.372;2022-07-29T11:47:49;35.10;56.70
14995;DHT22;7593;49.006;8.372;2022-07-29T11:50:18;35.20;56.70
14995;DHT22;7593;49.006;8.372;2022-07-29T11:52:53;35.20;57.00
14995;DHT22;7593;49.006;8.372;2022-07-29T11:55:22;35.40;56.10
14995;DHT22;7593;49.006;8.372;2022-07-29T11:57:51;35.50;55.80
14995;DHT22;7593;49.006;8.372;2022-07-29T12:00:25;35.40;55.80
14995;DHT22;7593;49.006;8.372;2022-07-29T12:02:52;34.90;56.30
14995;DHT22;7593;49.006;8.372;2022-07-29T12:05:19;34.10;56.60
14995;DHT22;7593;49.006;8.372;2022-07-29T12:07:47;33.10;57.70
14995;DHT22;7593;49.006;8.372;2022-07-29T12:10:15;32.30;58.80
14995;DHT22;7593;49.006;8.372;2022-07-29T12:12:51;31.50;59.90
14995;DHT22;7593;49.006;8.372;2022-07-29T12:15:19;31.00;61.00
14995;DHT22;7593;49.006;8.372;2022-07-29T12:17:47;30.80;61.80
14995;DHT22;7593;49.006;8.372;2022-07-29T12:20:22;30.90;62.00
14995;DHT22;7593;49.006;8.372;2022-07-29T12:22:49;31.10;61.20
14995;DHT22;7593;49.006;8.372;2022-07-29T12:25:19;31.20;60.20
14995;DHT22;7593;49.006;8.372;2022-07-29T12:27:47;31.40;60.20
14995;DHT22;7593;49.006;8.372;2022-07-29T12:30:34;31.40;60.10
14995;DHT22;7593;49.006;8.372;2022-07-29T12:33:10;31.40;59.40
14995;DHT22;7593;49.006;8.372;2022-07-29T12:35:37;31.50;59.40
14995;DHT22;7593;49.006;8.372;2022-07-29T12:38:05;31.70;59.30
14995;DHT22;7593;49.006;8.372;2022-07-29T12:40:32;31.80;59.30
14995;DHT22;7593;49.006;8.372;2022-07-29T12:43:09;31.70;59.40
14995;DHT22;7593;49.006;8.372;2022-07-29T12:45:36;31.70;59.00
14995;DHT22;7593;49.006;8.372;2022-07-29T12:48:04;31.60;58.60
14995;DHT22;7593;49.006;8.372;2022-07-29T12:50:31;31.60;58.80
14995;DHT22;7593;49.006;8.372;2022-07-29T12:53:09;31.50;59.00
14995;DHT22;7593;49.006;8.372;2022-07-29T12:55:44;31.50;58.80
14995;DHT22;7593;49.006;8.372;2022-07-29T12:58:32;31.50;58.60
14995;DHT22;7593;49.006;8.372;2022-07-29T13:01:08;31.60;59.10
14995;DHT22;7593;49.006;8.372;2022-07-29T13:03:48;31.80;59.00
14995;DHT22;7593;49.006;8.372;2022-07-29T13:06:37;31.70;59.30
14995;DHT22;7593;49.006;8.372;2022-07-29T13:09:10;31.50;59.60
14995;DHT22;7593;49.006;8.372;2022-07-29T13:11:38;31.50;60.00
14995;DHT22;7593;49.006;8.372;2022-07-29T13:14:08;31.50;59.80
14995;DHT22;7593;49.006;8.372;2022-07-29T13:16:36;31.40;59.60
14995;DHT22;7593;49.006;8.372;2022-07-29T13:19:08;31.20;59.80
14995;DHT22;7593;49.006;8.372;2022-07-29T13:21:36;31.10;60.10
14995;DHT22;7593;49.006;8.372;2022-07-29T13:24:04;30.90;60.10
14995;DHT22;7593;49.006;8.372;2022-07-29T13:26:31;30.80;60.70
14995;DHT22;7593;49.006;8.372;2022-07-29T13:28:58;30.80;60.50
14995;DHT22;7593;49.006;8.372;2022-07-29T13:31:27;30.60;59.90
14995;DHT22;7593;49.006;8.372;2022-07-29T13:33:53;30.40;60.40
14995;DHT22;7593;49.006;8.372;2022-07-29T13:36:21;30.30;60.60
14995;DHT22;7593;49.006;8.372;2022-07-29T13:38:48;30.20;60.40
14995;DHT22;7593;49.006;8.372;2022-07-29T13:41:15;30.10;60.50
14995;DHT22;7593;49.006;8.372;2022-07-29T13:43:42;30.10;60.40
14995;DHT22;7593;49.006;8.372;2022-07-29T13:46:09;30.10;60.50
14995;DHT22;7593;49.006;8.372;2022-07-29T13:48:38;30.00;60.20
14995;DHT22;7593;49.006;8.372;2022-07-29T13:51:04;30.00;60.20
14995;DHT22;7593;49.006;8.372;2022-07-29T13:53:31;29.80;60.00
14995;DHT22;7593;49.006;8.372;2022-07-29T13:55:58;29.90;60.50
14995;DHT22;7593;49.006;8.372;2022-07-29T13:58:25;29.90;59.90
14995;DHT22;7593;49.006;8.372;2022-07-29T14:00:52;30.00;60.00
14995;DHT22;7593;49.006;8.372;2022-07-29T14:03:19;30.10;60.10
14995;DHT22;7593;49.006;8.372;2022-07-29T14:05:47;30.40;59.60
14995;DHT22;7593;49.006;8.372;2022-07-29T14:08:14;30.50;58.80
14995;DHT22;7593;49.006;8.372;2022-07-29T14:10:41;30.50;59.00
14995;DHT22;7593;49.006;8.372;2022-07-29T14:13:07;30.50;59.00
14995;DHT22;7593;49.006;8.372;2022-07-29T14:15:34;30.40;58.90
14995;DHT22;7593;49.006;8.372;2022-07-29T14:18:01;30.30;58.90
14995;DHT22;7593;49.006;8.372;2022-07-29T14:20:28;30.20;59.10
14995;DHT22;7593;49.006;8.372;2022-07-29T14:22:56;30.20;59.20
14995;DHT22;7593;49.006;8.372;2022-07-29T14:25:23;30.30;59.30
14995;DHT22;7593;49.006;8.372;2022-07-29T14:27:50;30.40;58.40
14995;DHT22;7593;49.006;8.372;2022-07-29T14:30:18;30.30;57.80
14995;DHT22;7593;49.006;8.372;2022-07-29T14:32:45;30.20;57.70
14995;DHT22;7593;49.006;8.372;2022-07-29T14:35:12;30.10;58.00
14995;DHT22;7593;49.006;8.372;2022-07-29T14:37:39;30.10;58.10
14995;DHT22;7593;49.006;8.372;2022-07-29T14:40:08;30.00;59.00
14995;DHT22;7593;49.006;8.372;2022-07-29T14:42:35;29.90;58.70
14995;DHT22;7593;49.006;8.372;2022-07-29T14:45:03;30.00;58.80
14995;DHT22;7593;49.006;8.372;2022-07-29T14:47:31;30.20;58.40
14995;DHT22;7593;49.006;8.372;2022-07-29T14:49:57;30.50;58.10
14995;DHT22;7593;49.006;8.372;2022-07-29T14:52:24;30.70;57.50
14995;DHT22;7593;49.006;8.372;2022-07-29T14:54:51;30.80;56.80
14995;DHT22;7593;49.006;8.372;2022-07-29T14:57:19;30.70;56.80
14995;DHT22;7593;49.006;8.372;2022-07-29T14:59:46;30.70;57.10
14995;DHT22;7593;49.006;8.372;2022-07-29T15:02:13;30.70;57.10
14995;DHT22;7593;49.006;8.372;2022-07-29T15:04:40;30.90;56.90
14995;DHT22;7593;49.006;8.372;2022-07-29T15:07:06;30.90;56.10
14995;DHT22;7593;49.006;8.372;2022-07-29T15:09:33;30.80;56.00
14995;DHT22;7593;49.006;8.372;2022-07-29T15:12:00;30.70;56.10
14995;DHT22;7593;49.006;8.372;2022-07-29T15:14:29;30.70;56.00
14995;DHT22;7593;49.006;8.372;2022-07-29T15:16:57;30.60;56.10
14995;DHT22;7593;49.006;8.372;2022-07-29T15:19:24;30.70;55.40
14995;DHT22;7593;49.006;8.372;2022-07-29T15:21:51;30.40;55.70
14995;DHT22;7593;49.006;8.372;2022-07-29T15:24:18;30.30;55.70
14995;DHT22;7593;49.006;8.372;2022-07-29T15:26:46;30.20;56.30
14995;DHT22;7593;49.006;8.372;2022-07-29T15:29:13;30.20;55.70
14995;DHT22;7593;49.006;8.372;2022-07-29T15:31:41;30.20;55.80
14995;DHT22;7593;49.006;8.372;2022-07-29T15:34:08;30.30;55.80
14995;DHT22;7593;49.006;8.372;2022-07-29T15:36:35;30.50;55.60
14995;DHT22;7593;49.006;8.372;2022-07-29T15:39:02;30.60;55.30
14995;DHT22;7593;49.006;8.372;2022-07-29T15:41:29;30.60;54.90
14995;DHT22;7593;49.006;8.372;2022-07-29T15:43:56;30.70;54.70
14995;DHT22;7593;49.006;8.372;2022-07-29T15:46:23;30.80;54.60
14995;DHT22;7593;49.006;8.372;2022-07-29T15:49:09;30.80;54.40
14995;DHT22;7593;49.006;8.372;2022-07-29T15:51:36;30.70;54.40
14995;DHT22;7593;49.006;8.372;2022-07-29T15:54:04;30.60;54.50
14995;DHT22;7593;49.006;8.372;2022-07-29T15:56:31;30.50;54.40
14995;DHT22;7593;49.006;8.372;2022-07-29T15:58:58;30.30;54.40
14995;DHT22;7593;49.006;8.372;2022-07-29T16:01:25;30.20;54.70
14995;DHT22;7593;49.006;8.372;2022-07-29T16:03:52;30.10;54.10
14995;DHT22;7593;49.006;8.372;2022-07-29T16:06:20;30.00;54.10